createdAt,value
2023-04-05T00:02:21.543Z,45.20
2023-04-05T00:04:54.815Z,45.09
2023-04-05T00:07:22.118Z,45.21
2023-04-05T00:09:49.708Z,45.55
2023-04-05T00:12:16.934Z,46.63
2023-04-05T00:14:44.071Z,46.98
2023-04-05T00:17:12.631Z,46.48
2023-04-05T00:19:40.004Z,46.62
2023-04-05T00:22:10.579Z,47.06
2023-04-05T00:24:42.080Z,47.37
2023-04-05T00:27:09.375Z,47.03
2023-04-05T00:29:36.629Z,46.87
2023-04-05T00:32:04.804Z,47.06
2023-04-05T00:34:33.778Z,47.32
2023-04-05T00:37:01.418Z,47.42
2023-04-05T00:39:29.092Z,47.49
2023-04-05T00:41:56.338Z,47.71
2023-04-05T00:44:23.510Z,47.87
2023-04-05T00:46:51.183Z,47.61
2023-04-05T00:49:18.795Z,48.20
2023-04-05T00:51:46.434Z,48.47
2023-04-05T00:54:14.156Z,48.17
2023-04-05T00:56:41.447Z,48.91
2023-04-05T00:59:11.790Z,49.53
2023-04-05T01:01:40.440Z,49.75
2023-04-05T01:04:07.738Z,49.05
2023-04-05T01:06:44.132Z,49.62
2023-04-05T01:09:17.563Z,49.93
2023-04-05T01:11:45.242Z,49.72
2023-04-05T01:14:12.742Z,49.56
2023-04-05T01:16:39.956Z,49.38
2023-04-05T01:19:10.016Z,51.00
2023-04-05T01:21:38.149Z,49.08
2023-04-05T01:24:30.674Z,49.33
2023-04-05T01:27:02.253Z,49.20
2023-04-05T01:29:37.462Z,49.18
2023-04-05T01:32:08.064Z,50.43
2023-04-05T01:34:47.683Z,52.22
2023-04-05T01:37:16.403Z,55.49
2023-04-05T01:39:43.620Z,53.86
2023-04-05T01:42:10.791Z,56.23
2023-04-05T01:44:40.039Z,56.21
2023-04-05T01:47:07.189Z,58.02
2023-04-05T01:49:34.370Z,58.67
2023-04-05T01:52:02.009Z,56.23
2023-04-05T01:54:29.166Z,54.64
2023-04-05T01:56:56.885Z,53.46
2023-04-05T01:59:24.502Z,56.32
2023-04-05T02:01:51.974Z,57.79
2023-04-05T02:04:19.459Z,58.53
2023-04-05T02:06:46.663Z,59.83
2023-04-05T02:09:13.897Z,57.30
2023-04-05T02:11:41.304Z,58.59
2023-04-05T02:14:10.630Z,54.38
2023-04-05T02:16:37.845Z,53.30
2023-04-05T02:19:06.067Z,53.17
2023-04-05T02:21:33.579Z,52.67
2023-04-05T02:24:00.897Z,53.60
2023-04-05T02:26:28.052Z,53.40
2023-04-05T02:28:56.020Z,53.82
2023-04-05T02:31:23.270Z,54.40
2023-04-05T02:33:50.714Z,54.29
2023-04-05T02:36:18.570Z,54.06
2023-04-05T02:38:46.109Z,58.68
2023-04-05T02:41:13.304Z,60.07
2023-04-05T02:43:40.895Z,58.66
2023-04-05T02:46:08.105Z,56.36
2023-04-05T02:48:37.392Z,59.64
2023-04-05T02:51:04.997Z,62.68
2023-04-05T02:53:32.180Z,62.38
2023-04-05T02:56:00.176Z,63.21
2023-04-05T02:58:28.548Z,63.52
2023-04-05T03:00:56.339Z,61.50
2023-04-05T03:03:24.440Z,57.67
2023-04-05T03:06:00.474Z,58.50
2023-04-05T03:08:28.862Z,60.10
2023-04-05T03:10:57.520Z,57.30
2023-04-05T03:13:24.715Z,60.60
2023-04-05T03:15:56.054Z,59.22
2023-04-05T03:18:25.881Z,59.17
2023-04-05T03:20:57.327Z,60.35
2023-04-05T03:23:27.381Z,61.09
2023-04-05T03:25:57.974Z,59.94
2023-04-05T03:28:26.438Z,61.52
2023-04-05T03:30:54.893Z,61.85
2023-04-05T03:33:22.226Z,61.21
2023-04-05T03:35:50.398Z,61.90
2023-04-05T03:38:17.908Z,61.59
2023-04-05T03:40:46.181Z,59.86
2023-04-05T03:43:13.786Z,58.67
2023-04-05T03:45:41.254Z,58.67
2023-04-05T03:48:08.686Z,58.70
2023-04-05T03:50:36.320Z,59.01
2023-04-05T03:53:03.483Z,58.51
2023-04-05T03:55:31.511Z,59.75
2023-04-05T03:58:01.320Z,59.36
2023-04-05T04:00:29.716Z,61.09
2023-04-05T04:03:00.461Z,61.13
2023-04-05T04:05:28.070Z,59.85
2023-04-05T04:07:55.476Z,62.18
2023-04-05T04:10:23.777Z,59.93
2023-04-05T04:12:51.136Z,61.42
2023-04-05T04:15:19.252Z,62.07
2023-04-05T04:17:46.988Z,61.46
2023-04-05T04:20:14.946Z,60.67
2023-04-05T04:22:42.691Z,61.02
2023-04-05T04:25:11.404Z,62.78
2023-04-05T04:27:43.488Z,60.23
2023-04-05T04:30:12.224Z,58.70
2023-04-05T04:33:05.400Z,57.39
2023-04-05T04:35:35.048Z,57.40
2023-04-05T04:38:03.851Z,58.25
2023-04-05T04:40:38.687Z,58.31
2023-04-05T04:43:14.439Z,60.86
2023-04-05T04:45:42.084Z,59.17
2023-04-05T04:48:14.081Z,60.91
2023-04-05T04:50:41.437Z,60.59
2023-04-05T04:53:08.613Z,60.08
2023-04-05T04:55:36.254Z,60.37
2023-04-05T04:58:10.111Z,60.54
2023-04-05T05:00:42.072Z,60.69
2023-04-05T05:03:11.560Z,60.31
2023-04-05T05:05:46.843Z,60.73
2023-04-05T05:08:19.710Z,60.39
2023-04-05T05:10:54.941Z,60.20
2023-04-05T05:13:22.357Z,59.94
2023-04-05T05:15:49.863Z,61.10
2023-04-05T05:18:17.227Z,60.68
2023-04-05T05:20:44.607Z,59.71
2023-04-05T05:23:12.264Z,58.77
2023-04-05T05:25:39.482Z,58.51
2023-04-05T05:28:06.784Z,58.15
2023-04-05T05:30:34.378Z,58.73
2023-04-05T05:33:02.474Z,59.10
2023-04-05T05:35:29.700Z,59.23
2023-04-05T05:37:57.222Z,59.39
2023-04-05T05:40:26.860Z,59.24
2023-04-05T05:42:54.150Z,59.27
2023-04-05T05:45:21.562Z,58.92
2023-04-05T05:47:48.831Z,59.02
2023-04-05T05:50:17.228Z,59.02
2023-04-05T05:52:44.738Z,58.78
2023-04-05T05:55:11.883Z,58.48
2023-04-05T05:57:39.156Z,59.05
2023-04-05T06:00:10.676Z,58.75
2023-04-05T06:02:38.836Z,58.60
2023-04-05T06:05:06.671Z,58.90
2023-04-05T06:07:37.795Z,57.07
2023-04-05T06:10:05.548Z,58.06
2023-04-05T06:12:33.139Z,57.11
2023-04-05T06:15:00.957Z,57.29
2023-04-05T06:17:28.706Z,56.65
2023-04-05T06:19:56.285Z,56.07
2023-04-05T06:22:23.708Z,54.60
2023-04-05T06:24:50.969Z,54.75
2023-04-05T06:27:18.398Z,53.75
2023-04-05T06:29:45.782Z,53.15
2023-04-05T06:32:12.932Z,53.76
2023-04-05T06:34:40.654Z,52.57
2023-04-05T06:37:07.785Z,52.95
2023-04-05T06:39:34.953Z,52.88
2023-04-05T06:42:02.732Z,55.19
2023-04-05T06:44:33.137Z,54.31
2023-04-05T06:47:00.416Z,51.88
2023-04-05T06:49:27.926Z,51.71
2023-04-05T06:51:55.568Z,51.37
2023-04-05T06:54:24.604Z,53.35
2023-04-05T06:56:52.173Z,50.39
2023-04-05T06:59:19.750Z,48.71
2023-04-05T07:01:47.286Z,49.76
2023-04-05T07:04:15.001Z,48.24
2023-04-05T07:06:42.250Z,47.09
2023-04-05T07:09:09.551Z,45.65
2023-04-05T07:11:37.104Z,47.15
2023-04-05T07:14:04.356Z,48.91
2023-04-05T07:16:31.719Z,51.04
2023-04-05T07:18:59.368Z,50.05
2023-04-05T07:21:27.164Z,47.89
2023-04-05T07:23:56.095Z,46.40
2023-04-05T07:26:23.613Z,44.92
2023-04-05T07:28:50.791Z,44.89
2023-04-05T07:31:17.986Z,44.02
2023-04-05T07:33:45.740Z,44.79
2023-04-05T07:36:15.465Z,44.86
2023-04-05T07:38:43.577Z,44.22
2023-04-05T07:41:11.614Z,46.77
2023-04-05T07:43:38.943Z,43.03
2023-04-05T07:46:06.194Z,43.45
2023-04-05T07:48:33.681Z,44.59
2023-04-05T07:51:07.435Z,41.66
2023-04-05T07:53:36.322Z,45.06
2023-04-05T07:56:07.381Z,44.13
2023-04-05T07:58:35.347Z,43.90
2023-04-05T08:01:03.646Z,43.96
2023-04-05T08:03:32.045Z,41.75
2023-04-05T08:05:59.476Z,42.14
2023-04-05T08:08:26.713Z,39.76
2023-04-05T08:10:54.888Z,40.40
2023-04-05T08:13:22.392Z,41.90
2023-04-05T08:15:50.130Z,42.88
2023-04-05T08:18:19.261Z,40.16
2023-04-05T08:20:50.986Z,37.16
2023-04-05T08:23:18.742Z,38.38
2023-04-05T08:25:47.240Z,33.99
2023-04-05T08:28:14.494Z,34.45
2023-04-05T08:30:42.553Z,31.26
2023-04-05T08:33:10.446Z,33.44
2023-04-05T08:35:37.753Z,33.90
2023-04-05T08:38:06.756Z,34.65
2023-04-05T08:40:40.868Z,32.93
2023-04-05T08:43:11.638Z,33.23
2023-04-05T08:45:47.989Z,35.59
2023-04-05T08:48:16.385Z,35.56
2023-04-05T08:50:49.972Z,37.23
2023-04-05T08:53:17.656Z,37.43
2023-04-05T08:55:44.828Z,37.23
2023-04-05T08:58:13.291Z,39.70
2023-04-05T09:00:41.386Z,40.29
2023-04-05T09:03:09.199Z,39.51
2023-04-05T09:05:36.895Z,38.49
2023-04-05T09:08:04.463Z,40.34
2023-04-05T09:10:31.627Z,40.21
2023-04-05T09:12:59.997Z,41.38
2023-04-05T09:15:27.654Z,39.11
2023-04-05T09:17:54.977Z,40.27
2023-04-05T09:20:22.218Z,40.61
2023-04-05T09:22:49.738Z,40.24
2023-04-05T09:25:32.363Z,40.46
2023-04-05T09:28:00.136Z,39.25
2023-04-05T09:30:30.286Z,39.86
2023-04-05T09:32:57.535Z,39.68
2023-04-05T09:35:25.748Z,39.89
2023-04-05T09:37:53.894Z,39.98
2023-04-05T09:40:23.148Z,39.80
2023-04-05T09:42:51.292Z,38.98
2023-04-05T09:45:18.857Z,40.14
2023-04-05T09:47:58.773Z,37.85
2023-04-05T09:50:26.425Z,38.30
2023-04-05T09:53:05.730Z,39.75
2023-04-05T09:55:33.432Z,38.77
2023-04-05T09:58:01.312Z,38.64
2023-04-05T10:00:29.260Z,39.49
2023-04-05T10:02:56.853Z,39.55
2023-04-05T10:05:25.152Z,35.22
2023-04-05T10:07:52.884Z,37.42
2023-04-05T10:10:20.624Z,36.21
2023-04-05T10:12:47.918Z,37.28
2023-04-05T10:15:15.876Z,36.19
2023-04-05T10:17:51.591Z,37.01
2023-04-05T10:20:19.917Z,35.91
2023-04-05T10:23:01.330Z,36.07
2023-04-05T10:25:35.681Z,37.03
2023-04-05T10:28:06.942Z,36.48
2023-04-05T10:30:36.968Z,37.18
2023-04-05T10:33:07.844Z,36.79
2023-04-05T10:35:38.439Z,37.87
2023-04-05T10:38:12.084Z,37.88
2023-04-05T10:40:39.514Z,35.99
2023-04-05T10:43:07.249Z,36.50
2023-04-05T10:45:35.882Z,35.87
2023-04-05T10:48:07.084Z,35.93
2023-04-05T10:50:34.605Z,35.67
2023-04-05T10:53:01.901Z,35.70
2023-04-05T10:55:29.313Z,35.92
2023-04-05T10:57:56.912Z,35.11
2023-04-05T11:00:24.456Z,35.93
2023-04-05T11:02:54.032Z,35.21
2023-04-05T11:05:32.920Z,33.33
2023-04-05T11:08:01.114Z,33.63
2023-04-05T11:10:29.510Z,33.82
2023-04-05T11:12:56.687Z,33.06
2023-04-05T11:15:30.227Z,33.95
2023-04-05T11:18:04.906Z,33.86
2023-04-05T11:20:42.746Z,31.16
2023-04-05T11:23:10.883Z,30.71
2023-04-05T11:25:41.635Z,31.70
2023-04-05T11:28:09.293Z,32.13
2023-04-05T11:30:46.436Z,31.45
2023-04-05T11:33:33.548Z,32.92
2023-04-05T11:36:02.884Z,32.39
2023-04-05T11:38:30.294Z,32.85
2023-04-05T11:41:07.431Z,32.56
2023-04-05T11:43:35.583Z,32.70
2023-04-05T11:46:04.390Z,31.58
2023-04-05T11:48:31.570Z,31.21
2023-04-05T11:50:59.261Z,32.66
2023-04-05T11:53:26.614Z,32.42
2023-04-05T11:55:55.405Z,31.58
2023-04-05T11:58:23.925Z,29.73
2023-04-05T12:00:58.143Z,31.29
2023-04-05T12:03:26.516Z,31.70
2023-04-05T12:05:54.147Z,30.81
2023-04-05T12:08:21.764Z,31.36
2023-04-05T12:10:58.787Z,32.48
2023-04-05T12:13:29.511Z,31.87
2023-04-05T12:16:00.732Z,30.74
2023-04-05T12:18:29.024Z,31.43
2023-04-05T12:20:56.654Z,32.09
2023-04-05T12:23:24.704Z,31.30
2023-04-05T12:25:53.304Z,30.68
2023-04-05T12:28:20.985Z,30.13
2023-04-05T12:30:51.488Z,28.89
2023-04-05T12:33:28.538Z,28.62
2023-04-05T12:35:56.400Z,30.36
2023-04-05T12:38:25.412Z,30.89
2023-04-05T12:40:52.580Z,31.21
2023-04-05T12:43:20.456Z,31.20
2023-04-05T12:45:50.363Z,31.64
2023-04-05T12:48:25.816Z,31.12
2023-04-05T12:50:55.118Z,30.36
2023-04-05T12:53:23.865Z,30.05
2023-04-05T12:55:54.952Z,29.66
2023-04-05T12:58:35.537Z,31.19
2023-04-05T13:01:03.393Z,29.49
2023-04-05T13:03:31.249Z,29.88
2023-04-05T13:05:58.715Z,29.90
2023-04-05T13:08:27.677Z,29.62
2023-04-05T13:10:57.728Z,30.00
2023-04-05T13:13:25.596Z,30.01
2023-04-05T13:15:52.873Z,29.12
2023-04-05T13:18:20.679Z,30.29
2023-04-05T13:20:47.941Z,30.42
2023-04-05T13:23:15.126Z,30.75
2023-04-05T13:25:43.679Z,29.97
2023-04-05T13:28:11.049Z,28.93
2023-04-05T13:30:38.243Z,29.78
2023-04-05T13:33:06.789Z,29.81
2023-04-05T13:35:34.299Z,29.11
2023-04-05T13:38:04.213Z,30.99
2023-04-05T13:40:32.614Z,28.97
2023-04-05T13:43:00.357Z,30.63
2023-04-05T13:45:28.968Z,29.58
2023-04-05T13:47:56.686Z,29.45
2023-04-05T13:50:24.317Z,29.42
2023-04-05T13:52:51.954Z,30.24
2023-04-05T13:55:20.519Z,29.91
2023-04-05T13:57:47.708Z,29.83
2023-04-05T14:00:15.235Z,30.40
2023-04-05T14:02:43.035Z,30.43
2023-04-05T14:05:10.392Z,28.90
2023-04-05T14:07:37.715Z,29.10
2023-04-05T14:10:06.630Z,29.49
2023-04-05T14:12:34.323Z,29.54
2023-04-05T14:15:01.766Z,29.42
2023-04-05T14:17:29.251Z,30.01
2023-04-05T14:19:56.440Z,28.84
2023-04-05T14:22:23.609Z,29.08
2023-04-05T14:24:51.029Z,28.02
2023-04-05T14:27:18.210Z,28.65
2023-04-05T14:29:46.146Z,28.58
2023-04-05T14:32:13.618Z,27.17
2023-04-05T14:34:40.828Z,25.90
2023-04-05T14:37:08.110Z,26.89
2023-04-05T14:39:35.554Z,27.19
2023-04-05T14:42:03.194Z,28.49
2023-04-05T14:44:30.486Z,27.05
2023-04-05T14:46:57.937Z,27.63
2023-04-05T14:49:25.415Z,28.44
2023-04-05T14:51:53.149Z,25.91
2023-04-05T14:54:20.576Z,26.04
2023-04-05T14:56:47.800Z,26.84
2023-04-05T14:59:16.003Z,27.02
2023-04-05T15:01:45.573Z,27.17
2023-04-05T15:04:12.980Z,27.06
2023-04-05T15:06:40.370Z,27.13
2023-04-05T15:09:07.875Z,26.32
2023-04-05T15:11:38.612Z,27.03
2023-04-05T15:14:06.074Z,25.99
2023-04-05T15:16:33.533Z,26.62
2023-04-05T15:19:00.982Z,26.88
2023-04-05T15:21:28.334Z,26.88
2023-04-05T15:23:55.960Z,26.23
2023-04-05T15:26:23.157Z,26.83
2023-04-05T15:28:50.521Z,26.62
2023-04-05T15:31:18.669Z,26.43
2023-04-05T15:33:46.277Z,26.85
2023-04-05T15:36:13.642Z,26.71
2023-04-05T15:38:41.112Z,26.94
2023-04-05T15:41:08.434Z,26.87
2023-04-05T15:43:35.944Z,24.73
2023-04-05T15:46:05.142Z,26.71
2023-04-05T15:48:35.307Z,25.79
2023-04-05T15:51:02.453Z,27.06
2023-04-05T15:53:29.906Z,26.13
2023-04-05T15:55:58.388Z,26.67
2023-04-05T15:58:25.621Z,24.96
2023-04-05T16:00:53.064Z,25.52
2023-04-05T16:03:20.835Z,25.45
2023-04-05T16:05:48.064Z,25.33
2023-04-05T16:08:15.213Z,25.64
2023-04-05T16:10:42.862Z,25.86
2023-04-05T16:13:11.221Z,25.33
2023-04-05T16:15:38.447Z,25.68
2023-04-05T16:18:06.701Z,26.06
2023-04-05T16:20:34.190Z,27.21
2023-04-05T16:23:01.925Z,27.16
2023-04-05T16:25:29.641Z,25.88
2023-04-05T16:27:56.842Z,26.46
2023-04-05T16:30:24.036Z,26.92
2023-04-05T16:32:52.227Z,27.44
2023-04-05T16:35:19.596Z,27.87
2023-04-05T16:37:46.909Z,26.48
2023-04-05T16:40:14.518Z,27.73
2023-04-05T16:42:41.799Z,26.53
2023-04-05T16:45:09.338Z,27.77
2023-04-05T16:47:37.131Z,27.27
2023-04-05T16:50:04.605Z,27.45
2023-04-05T16:52:32.061Z,27.07
2023-04-05T16:54:59.503Z,27.05
2023-04-05T16:57:26.708Z,27.22
2023-04-05T16:59:53.989Z,26.86
2023-04-05T17:02:21.468Z,26.80
2023-04-05T17:04:48.685Z,26.63
2023-04-05T17:07:15.862Z,26.66
2023-04-05T17:09:43.318Z,26.63
2023-04-05T17:12:12.207Z,26.12
2023-04-05T17:14:39.774Z,26.04
2023-04-05T17:17:07.238Z,26.36
2023-04-05T17:19:34.440Z,26.06
2023-04-05T17:22:01.758Z,26.22
2023-04-05T17:24:33.536Z,26.74
2023-04-05T17:27:01.272Z,26.36
2023-04-05T17:29:28.840Z,26.59
2023-04-05T17:31:57.028Z,26.80
2023-04-05T17:34:24.158Z,27.04
2023-04-05T17:36:52.833Z,26.73
2023-04-05T17:39:20.118Z,27.64
2023-04-05T17:41:47.481Z,29.17
2023-04-05T17:44:15.196Z,28.47
2023-04-05T17:46:48.730Z,29.81
2023-04-05T17:49:21.797Z,32.10
2023-04-05T17:51:49.241Z,32.63
2023-04-05T17:54:16.544Z,31.12
2023-04-05T17:56:44.364Z,31.80
2023-04-05T17:59:11.676Z,32.49
2023-04-05T18:01:39.733Z,32.98
2023-04-05T18:04:09.355Z,32.54
2023-04-05T18:06:38.623Z,33.89
2023-04-05T18:09:08.839Z,34.39
2023-04-05T18:11:37.348Z,34.35
2023-04-05T18:14:05.768Z,33.71
2023-04-05T18:16:34.632Z,33.60
2023-04-05T18:19:02.129Z,32.94
2023-04-05T18:21:29.322Z,34.84
2023-04-05T18:23:58.027Z,35.33
2023-04-05T18:26:25.690Z,36.01
2023-04-05T18:28:59.741Z,35.79
2023-04-05T18:31:28.483Z,38.70
2023-04-05T18:33:55.712Z,39.68
2023-04-05T18:36:25.595Z,40.02
2023-04-05T18:38:53.812Z,38.74
2023-04-05T18:41:21.136Z,39.68
2023-04-05T18:43:49.218Z,40.44
2023-04-05T18:46:18.760Z,40.72
2023-04-05T18:48:46.821Z,40.46
2023-04-05T18:51:14.030Z,41.42
2023-04-05T18:53:41.589Z,40.96
2023-04-05T18:56:09.453Z,40.00
2023-04-05T18:58:37.184Z,38.24
2023-04-05T19:01:05.942Z,37.96
2023-04-05T19:03:33.582Z,38.90
2023-04-05T19:06:01.169Z,40.01
2023-04-05T19:08:31.011Z,41.07
2023-04-05T19:11:01.292Z,42.23
2023-04-05T19:13:30.098Z,42.05
2023-04-05T19:15:57.768Z,42.25
2023-04-05T19:18:29.257Z,43.20
2023-04-05T19:20:57.722Z,43.25
2023-04-05T19:23:25.909Z,42.81
2023-04-05T19:25:57.038Z,40.42
2023-04-05T19:28:24.925Z,41.27
2023-04-05T19:30:52.588Z,39.54
2023-04-05T19:33:21.554Z,41.61
2023-04-05T19:35:50.101Z,42.57
2023-04-05T19:38:17.785Z,44.25
2023-04-05T19:40:45.101Z,43.07
2023-04-05T19:43:13.125Z,43.83
2023-04-05T19:45:40.788Z,45.42
2023-04-05T19:48:28.084Z,45.46
2023-04-05T19:50:57.489Z,46.85
2023-04-05T19:53:32.251Z,46.20
2023-04-05T19:56:00.110Z,46.14
2023-04-05T19:58:28.017Z,45.99
2023-04-05T20:00:55.645Z,45.90
2023-04-05T20:03:33.103Z,45.93
2023-04-05T20:06:09.582Z,45.99
2023-04-05T20:08:38.325Z,45.41
2023-04-05T20:11:07.929Z,45.23
2023-04-05T20:13:42.329Z,44.81
2023-04-05T20:16:10.806Z,44.44
2023-04-05T20:18:38.329Z,43.75
2023-04-05T20:21:06.318Z,44.25
2023-04-05T20:23:33.797Z,43.27
2023-04-05T20:26:01.076Z,42.85
2023-04-05T20:28:40.489Z,42.78
2023-04-05T20:31:15.923Z,43.29
2023-04-05T20:33:47.495Z,42.78
2023-04-05T20:36:21.937Z,41.61
2023-04-05T20:38:49.420Z,41.98
2023-04-05T20:41:18.593Z,40.74
2023-04-05T20:43:45.980Z,43.28
2023-04-05T20:46:13.386Z,45.33
2023-04-05T20:48:40.926Z,44.27
2023-04-05T20:51:08.737Z,44.98
2023-04-05T20:53:36.580Z,42.77
2023-04-05T20:56:04.662Z,43.86
2023-04-05T20:58:32.014Z,41.75
2023-04-05T21:01:02.959Z,41.06
2023-04-05T21:03:31.878Z,39.79
2023-04-05T21:05:59.546Z,41.51
2023-04-05T21:08:27.010Z,41.16
2023-04-05T21:10:54.725Z,43.60
2023-04-05T21:13:22.117Z,46.73
2023-04-05T21:15:49.376Z,44.74
2023-04-05T21:18:17.026Z,45.26
2023-04-05T21:20:50.511Z,46.54
2023-04-05T21:23:18.666Z,47.41
2023-04-05T21:25:46.134Z,48.79
2023-04-05T21:28:13.819Z,49.75
2023-04-05T21:30:41.343Z,49.93
2023-04-05T21:33:08.595Z,48.74
2023-04-05T21:35:35.974Z,47.28
2023-04-05T21:38:03.633Z,47.49
2023-04-05T21:40:30.894Z,46.83
2023-04-05T21:42:58.234Z,47.81
2023-04-05T21:45:25.833Z,44.93
2023-04-05T21:47:53.133Z,50.62
2023-04-05T21:50:20.485Z,45.65
2023-04-05T21:52:47.999Z,44.69
2023-04-05T21:55:15.347Z,45.86
2023-04-05T21:57:42.533Z,47.41
2023-04-05T22:00:12.098Z,46.35
2023-04-05T22:02:40.001Z,46.92
2023-04-05T22:05:07.863Z,46.42
2023-04-05T22:07:35.626Z,47.17
2023-04-05T22:10:03.481Z,46.40
2023-04-05T22:12:31.105Z,46.31
2023-04-05T22:14:58.315Z,47.94
2023-04-05T22:17:25.610Z,48.89
2023-04-05T22:19:53.183Z,49.20
2023-04-05T22:22:20.499Z,48.86
2023-04-05T22:24:48.963Z,49.13
2023-04-05T22:27:16.396Z,48.51
2023-04-05T22:29:43.559Z,47.03
2023-04-05T22:32:10.902Z,46.48
2023-04-05T22:34:38.976Z,46.22
2023-04-05T22:37:06.403Z,47.11
2023-04-05T22:39:33.562Z,50.26
2023-04-05T22:42:01.539Z,50.81
2023-04-05T22:44:28.773Z,48.46
2023-04-05T22:46:55.929Z,47.21
2023-04-05T22:49:23.391Z,47.83
2023-04-05T22:51:50.544Z,49.10
2023-04-05T22:54:17.724Z,51.17
2023-04-05T22:56:45.456Z,54.00
2023-04-05T22:59:12.722Z,55.24
2023-04-05T23:01:40.054Z,51.44
2023-04-05T23:04:07.786Z,49.19
2023-04-05T23:06:35.187Z,49.84
2023-04-05T23:09:04.356Z,48.80
2023-04-05T23:11:31.854Z,50.57
2023-04-05T23:13:59.086Z,54.27
2023-04-05T23:16:26.625Z,55.65
2023-04-05T23:18:54.251Z,56.16
2023-04-05T23:21:21.528Z,55.36
2023-04-05T23:23:48.788Z,57.04
2023-04-05T23:26:16.262Z,57.47
2023-04-05T23:28:43.467Z,55.38
2023-04-05T23:31:10.886Z,56.21
2023-04-05T23:33:38.375Z,55.59
2023-04-05T23:36:05.935Z,56.40
2023-04-05T23:38:33.123Z,56.75
2023-04-05T23:41:00.546Z,57.01
2023-04-05T23:43:27.752Z,57.69
2023-04-05T23:45:54.932Z,57.50
2023-04-05T23:48:22.414Z,57.92
2023-04-05T23:50:49.810Z,58.35
2023-04-05T23:53:17.014Z,59.53
2023-04-05T23:55:44.447Z,59.78
2023-04-05T23:58:11.612Z,59.73
